sensor_id;sensor_type;location;lat;lon;timestamp;temperature;humidity
37786;DHT22;23625;48.784;9.336;2023-11-19T00:00:50;8.20;99.90
37786;DHT22;23625;48.784;9.336;2023-11-19T00:03:16;8.20;99.90
37786;DHT22;23625;48.784;9.336;2023-11-19T00:05:43;8.30;99.90
37786;DHT22;23625;48.784;9.336;2023-11-19T00:08:10;8.30;99.90
37786;DHT22;23625;48.784;9.336;2023-11-19T00:10:35;8.40;99.90
37786;DHT22;23625;48.784;9.336;2023-11-19T00:13:01;8.30;99.90
37786;DHT22;23625;48.784;9.336;2023-11-19T00:15:28;8.30;99.90
37786;DHT22;23625;48.784;9.336;2023-11-19T00:17:54;8.40;99.90
37786;DHT22;23625;48.784;9.336;2023-11-19T00:20:20;8.40;99.90
37786;DHT22;23625;48.784;9.336;2023-11-19T00:22:48;8.40;99.90
37786;DHT22;23625;48.784;9.336;2023-11-19T00:25:17;8.40;99.90
37786;DHT22;23625;48.784;9.336;2023-11-19T00:27:42;8.40;99.90
37786;DHT22;23625;48.784;9.336;2023-11-19T00:30:10;8.40;99.90
37786;DHT22;23625;48.784;9.336;2023-11-19T00:32:36;8.40;99.90
37786;DHT22;23625;48.784;9.336;2023-11-19T00:35:04;8.40;99.90
37786;DHT22;23625;48.784;9.336;2023-11-19T00:37:30;8.50;99.90
37786;DHT22;23625;48.784;9.336;2023-11-19T00:39:55;8.50;99.90
37786;DHT22;23625;48.784;9.336;2023-11-19T00:42:22;8.50;99.90
37786;DHT22;23625;48.784;9.336;2023-11-19T00:44:48;8.60;99.90
37786;DHT22;23625;48.784;9.336;2023-11-19T00:47:14;8.60;99.90
37786;DHT22;23625;48.784;9.336;2023-11-19T00:49:39;8.60;99.90
37786;DHT22;23625;48.784;9.336;2023-11-19T00:52:05;8.70;99.90
37786;DHT22;23625;48.784;9.336;2023-11-19T00:54:31;8.70;99.90
37786;DHT22;23625;48.784;9.336;2023-11-19T00:56:57;8.70;99.90
37786;DHT22;23625;48.784;9.336;2023-11-19T00:59:23;8.70;99.90
37786;DHT22;23625;48.784;9.336;2023-11-19T01:01:48;8.80;99.90
37786;DHT22;23625;48.784;9.336;2023-11-19T01:04:14;8.80;99.90
37786;DHT22;23625;48.784;9.336;2023-11-19T01:06:40;8.80;99.90
37786;DHT22;23625;48.784;9.336;2023-11-19T01:09:07;8.80;99.90
37786;DHT22;23625;48.784;9.336;2023-11-19T01:11:34;8.80;99.90
37786;DHT22;23625;48.784;9.336;2023-11-19T01:13:59;8.80;99.90
37786;DHT22;23625;48.784;9.336;2023-11-19T01:16:26;8.90;99.90
37786;DHT22;23625;48.784;9.336;2023-11-19T01:18:51;8.90;99.90
37786;DHT22;23625;48.784;9.336;2023-11-19T01:21:18;8.90;99.90
37786;DHT22;23625;48.784;9.336;2023-11-19T01:23:44;9.00;99.90
37786;DHT22;23625;48.784;9.336;2023-11-19T01:26:10;9.00;99.90
37786;DHT22;23625;48.784;9.336;2023-11-19T01:28:36;9.00;99.90
37786;DHT22;23625;48.784;9.336;2023-11-19T01:31:02;9.10;99.90
37786;DHT22;23625;48.784;9.336;2023-11-19T01:33:29;9.00;99.90
37786;DHT22;23625;48.784;9.336;2023-11-19T01:35:55;9.10;99.90
37786;DHT22;23625;48.784;9.336;2023-11-19T01:38:22;9.00;99.90
37786;DHT22;23625;48.784;9.336;2023-11-19T01:40:48;9.00;99.90
37786;DHT22;23625;48.784;9.336;2023-11-19T01:43:34;9.00;99.90
37786;DHT22;23625;48.784;9.336;2023-11-19T01:46:00;9.10;99.90
37786;DHT22;23625;48.784;9.336;2023-11-19T01:48:27;9.10;99.90
37786;DHT22;23625;48.784;9.336;2023-11-19T01:51:03;9.10;99.90
37786;DHT22;23625;48.784;9.336;2023-11-19T01:53:29;9.10;99.90
37786;DHT22;23625;48.784;9.336;2023-11-19T01:55:56;9.10;99.90
37786;DHT22;23625;48.784;9.336;2023-11-19T01:58:23;9.10;99.90
37786;DHT22;23625;48.784;9.336;2023-11-19T02:00:49;9.20;99.90
37786;DHT22;23625;48.784;9.336;2023-11-19T02:03:14;9.20;99.90
37786;DHT22;23625;48.784;9.336;2023-11-19T02:05:40;9.20;99.90
37786;DHT22;23625;48.784;9.336;2023-11-19T02:08:06;9.20;99.90
37786;DHT22;23625;48.784;9.336;2023-11-19T02:10:32;9.20;99.90
37786;DHT22;23625;48.784;9.336;2023-11-19T02:13:01;9.20;99.90
37786;DHT22;23625;48.784;9.336;2023-11-19T02:15:26;9.20;99.90
37786;DHT22;23625;48.784;9.336;2023-11-19T02:17:52;9.20;99.90
37786;DHT22;23625;48.784;9.336;2023-11-19T02:20:18;9.20;99.90
37786;DHT22;23625;48.784;9.336;2023-11-19T02:22:49;9.20;99.90
37786;DHT22;23625;48.784;9.336;2023-11-19T02:25:30;9.20;99.90
37786;DHT22;23625;48.784;9.336;2023-11-19T02:27:59;9.20;99.90
37786;DHT22;23625;48.784;9.336;2023-11-19T02:30:25;9.30;99.90
37786;DHT22;23625;48.784;9.336;2023-11-19T02:32:57;9.30;99.90
37786;DHT22;23625;48.784;9.336;2023-11-19T02:35:24;9.30;99.90
37786;DHT22;23625;48.784;9.336;2023-11-19T02:37:51;9.30;99.90
37786;DHT22;23625;48.784;9.336;2023-11-19T02:40:16;9.40;99.90
37786;DHT22;23625;48.784;9.336;2023-11-19T02:42:42;9.40;99.90
37786;DHT22;23625;48.784;9.336;2023-11-19T02:45:08;9.40;99.90
37786;DHT22;23625;48.784;9.336;2023-11-19T02:47:42;9.40;99.90
37786;DHT22;23625;48.784;9.336;2023-11-19T02:50:11;9.40;99.90
37786;DHT22;23625;48.784;9.336;2023-11-19T02:52:41;9.50;99.90
37786;DHT22;23625;48.784;9.336;2023-11-19T02:55:08;9.50;99.90
37786;DHT22;23625;48.784;9.336;2023-11-19T02:57:38;9.60;99.90
37786;DHT22;23625;48.784;9.336;2023-11-19T03:00:13;9.60;99.90
37786;DHT22;23625;48.784;9.336;2023-11-19T03:02:40;9.60;99.90
37786;DHT22;23625;48.784;9.336;2023-11-19T03:05:11;9.50;99.90
37786;DHT22;23625;48.784;9.336;2023-11-19T03:07:37;9.60;99.90
37786;DHT22;23625;48.784;9.336;2023-11-19T03:10:03;9.60;99.90
37786;DHT22;23625;48.784;9.336;2023-11-19T03:12:31;9.50;99.90
37786;DHT22;23625;48.784;9.336;2023-11-19T03:14:56;9.60;99.90
37786;DHT22;23625;48.784;9.336;2023-11-19T03:17:22;9.60;99.90
37786;DHT22;23625;48.784;9.336;2023-11-19T03:19:49;9.60;99.90
37786;DHT22;23625;48.784;9.336;2023-11-19T03:22:15;9.60;99.90
37786;DHT22;23625;48.784;9.336;2023-11-19T03:24:40;9.70;99.90
37786;DHT22;23625;48.784;9.336;2023-11-19T03:27:06;9.70;99.90
37786;DHT22;23625;48.784;9.336;2023-11-19T03:29:32;9.60;99.90
37786;DHT22;23625;48.784;9.336;2023-11-19T03:31:57;9.60;99.90
37786;DHT22;23625;48.784;9.336;2023-11-19T03:34:23;9.60;99.90
37786;DHT22;23625;48.784;9.336;2023-11-19T03:36:50;9.60;99.90
37786;DHT22;23625;48.784;9.336;2023-11-19T03:39:15;9.60;99.90
37786;DHT22;23625;48.784;9.336;2023-11-19T03:41:41;9.60;99.90
37786;DHT22;23625;48.784;9.336;2023-11-19T03:44:06;9.50;99.90
37786;DHT22;23625;48.784;9.336;2023-11-19T03:46:32;9.60;99.90
37786;DHT22;23625;48.784;9.336;2023-11-19T03:48:57;9.60;99.90
37786;DHT22;23625;48.784;9.336;2023-11-19T03:51:23;9.60;99.90
37786;DHT22;23625;48.784;9.336;2023-11-19T03:53:48;9.70;99.90
37786;DHT22;23625;48.784;9.336;2023-11-19T03:56:14;9.70;99.90
37786;DHT22;23625;48.784;9.336;2023-11-19T03:58:40;9.80;99.90
37786;DHT22;23625;48.784;9.336;2023-11-19T04:01:10;9.80;99.90
37786;DHT22;23625;48.784;9.336;2023-11-19T04:03:36;9.90;99.90
37786;DHT22;23625;48.784;9.336;2023-11-19T04:06:02;9.90;99.90
37786;DHT22;23625;48.784;9.336;2023-11-19T04:08:27;9.90;99.90
37786;DHT22;23625;48.784;9.336;2023-11-19T04:10:53;10.00;99.90
37786;DHT22;23625;48.784;9.336;2023-11-19T04:13:18;10.00;99.90
37786;DHT22;23625;48.784;9.336;2023-11-19T04:15:45;10.00;99.90
37786;DHT22;23625;48.784;9.336;2023-11-19T04:18:11;10.10;99.90
37786;DHT22;23625;48.784;9.336;2023-11-19T04:20:36;10.10;99.90
37786;DHT22;23625;48.784;9.336;2023-11-19T04:23:03;10.10;99.90
37786;DHT22;23625;48.784;9.336;2023-11-19T04:25:28;10.20;99.90
37786;DHT22;23625;48.784;9.336;2023-11-19T04:27:54;10.20;99.90
37786;DHT22;23625;48.784;9.336;2023-11-19T04:30:19;10.20;99.90
37786;DHT22;23625;48.784;9.336;2023-11-19T04:32:45;10.30;99.90
37786;DHT22;23625;48.784;9.336;2023-11-19T04:35:10;10.30;99.90
37786;DHT22;23625;48.784;9.336;2023-11-19T04:37:37;10.30;99.90
37786;DHT22;23625;48.784;9.336;2023-11-19T04:40:03;10.50;99.90
37786;DHT22;23625;48.784;9.336;2023-11-19T04:42:29;10.50;99.90
37786;DHT22;23625;48.784;9.336;2023-11-19T04:44:55;10.50;99.90
37786;DHT22;23625;48.784;9.336;2023-11-19T04:47:20;10.50;99.90
37786;DHT22;23625;48.784;9.336;2023-11-19T04:49:46;10.50;99.90
37786;DHT22;23625;48.784;9.336;2023-11-19T04:52:12;10.50;99.90
37786;DHT22;23625;48.784;9.336;2023-11-19T04:54:43;10.50;99.90
37786;DHT22;23625;48.784;9.336;2023-11-19T04:57:10;10.50;99.90
37786;DHT22;23625;48.784;9.336;2023-11-19T04:59:36;10.60;99.90
37786;DHT22;23625;48.784;9.336;2023-11-19T05:02:02;10.60;99.90
37786;DHT22;23625;48.784;9.336;2023-11-19T05:04:29;10.70;99.90
37786;DHT22;23625;48.784;9.336;2023-11-19T05:06:55;10.70;99.90
37786;DHT22;23625;48.784;9.336;2023-11-19T05:09:21;10.70;99.90
37786;DHT22;23625;48.784;9.336;2023-11-19T05:11:46;10.70;99.90
37786;DHT22;23625;48.784;9.336;2023-11-19T05:14:12;10.70;99.90
37786;DHT22;23625;48.784;9.336;2023-11-19T05:16:40;10.70;99.90
37786;DHT22;23625;48.784;9.336;2023-11-19T05:19:06;10.70;99.90
37786;DHT22;23625;48.784;9.336;2023-11-19T05:21:31;10.70;99.90
37786;DHT22;23625;48.784;9.336;2023-11-19T05:23:57;10.70;99.90
37786;DHT22;23625;48.784;9.336;2023-11-19T05:26:23;10.80;99.90
37786;DHT22;23625;48.784;9.336;2023-11-19T05:28:49;10.80;99.90
37786;DHT22;23625;48.784;9.336;2023-11-19T05:31:16;10.70;99.90
37786;DHT22;23625;48.784;9.336;2023-11-19T05:33:42;10.80;99.90
37786;DHT22;23625;48.784;9.336;2023-11-19T05:36:08;10.80;99.90
37786;DHT22;23625;48.784;9.336;2023-11-19T05:38:35;10.90;99.90
37786;DHT22;23625;48.784;9.336;2023-11-19T05:41:01;10.90;99.90
37786;DHT22;23625;48.784;9.336;2023-11-19T05:43:26;10.90;99.90
37786;DHT22;23625;48.784;9.336;2023-11-19T05:45:52;10.90;99.90
37786;DHT22;23625;48.784;9.336;2023-11-19T05:48:17;11.00;99.90
37786;DHT22;23625;48.784;9.336;2023-11-19T05:50:43;11.00;99.90
37786;DHT22;23625;48.784;9.336;2023-11-19T05:53:09;11.00;99.90
37786;DHT22;23625;48.784;9.336;2023-11-19T05:55:36;10.90;99.90
37786;DHT22;23625;48.784;9.336;2023-11-19T05:58:10;11.00;99.90
37786;DHT22;23625;48.784;9.336;2023-11-19T06:00:38;11.00;99.90
37786;DHT22;23625;48.784;9.336;2023-11-19T06:03:04;11.00;99.90
37786;DHT22;23625;48.784;9.336;2023-11-19T06:05:29;11.00;99.90
37786;DHT22;23625;48.784;9.336;2023-11-19T06:07:55;11.00;99.90
37786;DHT22;23625;48.784;9.336;2023-11-19T06:10:22;11.00;99.90
37786;DHT22;23625;48.784;9.336;2023-11-19T06:12:54;11.00;99.90
37786;DHT22;23625;48.784;9.336;2023-11-19T06:15:22;11.00;99.90
37786;DHT22;23625;48.784;9.336;2023-11-19T06:17:47;11.10;99.90
37786;DHT22;23625;48.784;9.336;2023-11-19T06:20:14;11.10;99.90
37786;DHT22;23625;48.784;9.336;2023-11-19T06:22:39;11.10;99.90
37786;DHT22;23625;48.784;9.336;2023-11-19T06:25:08;11.10;99.90
37786;DHT22;23625;48.784;9.336;2023-11-19T06:27:33;11.10;99.90
37786;DHT22;23625;48.784;9.336;2023-11-19T06:30:00;11.10;99.90
37786;DHT22;23625;48.784;9.336;2023-11-19T06:32:25;11.10;99.90
37786;DHT22;23625;48.784;9.336;2023-11-19T06:34:51;11.10;99.90
37786;DHT22;23625;48.784;9.336;2023-11-19T06:37:17;11.20;99.90
37786;DHT22;23625;48.784;9.336;2023-11-19T06:39:42;11.10;99.90
37786;DHT22;23625;48.784;9.336;2023-11-19T06:42:08;11.20;99.90
37786;DHT22;23625;48.784;9.336;2023-11-19T06:44:33;11.20;99.90
37786;DHT22;23625;48.784;9.336;2023-11-19T06:46:59;11.20;99.90
37786;DHT22;23625;48.784;9.336;2023-11-19T06:49:25;11.20;99.90
37786;DHT22;23625;48.784;9.336;2023-11-19T06:51:51;11.20;99.90
37786;DHT22;23625;48.784;9.336;2023-11-19T06:54:16;11.20;99.90
37786;DHT22;23625;48.784;9.336;2023-11-19T06:56:42;11.30;99.90
37786;DHT22;23625;48.784;9.336;2023-11-19T06:59:08;11.20;99.90
37786;DHT22;23625;48.784;9.336;2023-11-19T07:01:35;11.30;99.90
37786;DHT22;23625;48.784;9.336;2023-11-19T07:04:01;11.30;99.90
37786;DHT22;23625;48.784;9.336;2023-11-19T07:06:33;11.30;99.90
37786;DHT22;23625;48.784;9.336;2023-11-19T07:08:59;11.30;99.90
37786;DHT22;23625;48.784;9.336;2023-11-19T07:11:27;11.30;99.90
37786;DHT22;23625;48.784;9.336;2023-11-19T07:13:54;11.30;99.90
37786;DHT22;23625;48.784;9.336;2023-11-19T07:16:20;11.40;99.90
37786;DHT22;23625;48.784;9.336;2023-11-19T07:18:48;11.40;99.90
37786;DHT22;23625;48.784;9.336;2023-11-19T07:21:15;11.40;99.90
37786;DHT22;23625;48.784;9.336;2023-11-19T07:23:41;11.40;99.90
37786;DHT22;23625;48.784;9.336;2023-11-19T07:26:07;11.40;99.90
37786;DHT22;23625;48.784;9.336;2023-11-19T07:28:33;11.40;99.90
37786;DHT22;23625;48.784;9.336;2023-11-19T07:31:00;11.40;99.90
37786;DHT22;23625;48.784;9.336;2023-11-19T07:33:25;11.40;99.90
37786;DHT22;23625;48.784;9.336;2023-11-19T07:35:54;11.50;99.90
37786;DHT22;23625;48.784;9.336;2023-11-19T07:38:20;11.50;99.90
37786;DHT22;23625;48.784;9.336;2023-11-19T07:40:45;11.40;99.90
37786;DHT22;23625;48.784;9.336;2023-11-19T07:43:12;11.50;99.90
37786;DHT22;23625;48.784;9.336;2023-11-19T07:45:38;11.50;99.90
37786;DHT22;23625;48.784;9.336;2023-11-19T07:48:04;11.50;99.90
37786;DHT22;23625;48.784;9.336;2023-11-19T07:50:29;11.50;99.90
37786;DHT22;23625;48.784;9.336;2023-11-19T07:52:57;11.50;99.90
37786;DHT22;23625;48.784;9.336;2023-11-19T07:55:22;11.60;99.90
37786;DHT22;23625;48.784;9.336;2023-11-19T07:57:48;11.60;99.90
37786;DHT22;23625;48.784;9.336;2023-11-19T08:00:14;11.60;99.90
37786;DHT22;23625;48.784;9.336;2023-11-19T08:02:40;11.60;99.90
37786;DHT22;23625;48.784;9.336;2023-11-19T08:05:06;11.60;99.90
37786;DHT22;23625;48.784;9.336;2023-11-19T08:07:31;11.60;99.90
37786;DHT22;23625;48.784;9.336;2023-11-19T08:09:57;11.70;99.90
37786;DHT22;23625;48.784;9.336;2023-11-19T08:12:22;11.70;99.90
37786;DHT22;23625;48.784;9.336;2023-11-19T08:14:48;11.70;99.90
37786;DHT22;23625;48.784;9.336;2023-11-19T08:17:15;11.70;99.90
37786;DHT22;23625;48.784;9.336;2023-11-19T08:19:41;11.70;99.90
37786;DHT22;23625;48.784;9.336;2023-11-19T08:22:07;11.80;99.90
37786;DHT22;23625;48.784;9.336;2023-11-19T08:24:32;11.80;99.90
37786;DHT22;23625;48.784;9.336;2023-11-19T08:26:58;11.80;99.90
37786;DHT22;23625;48.784;9.336;2023-11-19T08:29:23;11.80;99.90
37786;DHT22;23625;48.784;9.336;2023-11-19T08:31:50;11.80;99.90
37786;DHT22;23625;48.784;9.336;2023-11-19T08:34:15;11.80;99.90
37786;DHT22;23625;48.784;9.336;2023-11-19T08:36:41;11.80;99.90
37786;DHT22;23625;48.784;9.336;2023-11-19T08:39:06;11.90;99.90
37786;DHT22;23625;48.784;9.336;2023-11-19T08:41:34;11.90;99.90
37786;DHT22;23625;48.784;9.336;2023-11-19T08:44:00;12.00;99.90
37786;DHT22;23625;48.784;9.336;2023-11-19T08:46:25;12.00;99.90
37786;DHT22;23625;48.784;9.336;2023-11-19T08:48:51;12.10;99.90
37786;DHT22;23625;48.784;9.336;2023-11-19T08:51:17;12.20;99.90
37786;DHT22;23625;48.784;9.336;2023-11-19T08:53:42;12.50;99.90
37786;DHT22;23625;48.784;9.336;2023-11-19T08:56:08;12.50;99.90
37786;DHT22;23625;48.784;9.336;2023-11-19T08:58:34;12.50;99.90
37786;DHT22;23625;48.784;9.336;2023-11-19T09:00:59;12.50;99.90
37786;DHT22;23625;48.784;9.336;2023-11-19T09:03:25;12.50;99.90
37786;DHT22;23625;48.784;9.336;2023-11-19T09:05:52;12.50;99.90
37786;DHT22;23625;48.784;9.336;2023-11-19T09:08:17;12.40;99.90
37786;DHT22;23625;48.784;9.336;2023-11-19T09:10:43;12.50;99.90
37786;DHT22;23625;48.784;9.336;2023-11-19T09:13:08;12.50;99.90
37786;DHT22;23625;48.784;9.336;2023-11-19T09:15:34;12.50;99.90
37786;DHT22;23625;48.784;9.336;2023-11-19T09:18:00;12.60;99.90
37786;DHT22;23625;48.784;9.336;2023-11-19T09:20:25;12.70;99.90
37786;DHT22;23625;48.784;9.336;2023-11-19T09:22:51;12.80;99.90
37786;DHT22;23625;48.784;9.336;2023-11-19T09:25:17;12.80;99.90
37786;DHT22;23625;48.784;9.336;2023-11-19T09:27:43;12.90;99.90
37786;DHT22;23625;48.784;9.336;2023-11-19T09:30:09;12.90;99.90
37786;DHT22;23625;48.784;9.336;2023-11-19T09:32:35;12.80;99.90
37786;DHT22;23625;48.784;9.336;2023-11-19T09:35:00;12.80;99.90
37786;DHT22;23625;48.784;9.336;2023-11-19T09:37:26;12.80;99.90
37786;DHT22;23625;48.784;9.336;2023-11-19T09:39:52;12.70;99.90
37786;DHT22;23625;48.784;9.336;2023-11-19T09:42:19;12.80;99.90
37786;DHT22;23625;48.784;9.336;2023-11-19T09:44:44;12.80;99.90
37786;DHT22;23625;48.784;9.336;2023-11-19T09:47:11;12.90;99.90
37786;DHT22;23625;48.784;9.336;2023-11-19T09:49:38;12.90;99.90
37786;DHT22;23625;48.784;9.336;2023-11-19T09:52:04;13.00;99.90
37786;DHT22;23625;48.784;9.336;2023-11-19T09:54:30;13.00;99.90
37786;DHT22;23625;48.784;9.336;2023-11-19T09:56:57;13.10;99.90
37786;DHT22;23625;48.784;9.336;2023-11-19T09:59:29;13.20;99.90
37786;DHT22;23625;48.784;9.336;2023-11-19T10:01:55;13.30;99.90
37786;DHT22;23625;48.784;9.336;2023-11-19T10:04:22;13.40;99.90
37786;DHT22;23625;48.784;9.336;2023-11-19T10:06:49;13.50;99.90
37786;DHT22;23625;48.784;9.336;2023-11-19T10:09:15;13.50;99.90
37786;DHT22;23625;48.784;9.336;2023-11-19T10:11:40;13.60;99.90
37786;DHT22;23625;48.784;9.336;2023-11-19T10:14:06;13.70;99.90
37786;DHT22;23625;48.784;9.336;2023-11-19T10:16:34;13.90;99.90
37786;DHT22;23625;48.784;9.336;2023-11-19T10:19:00;14.10;99.90
37786;DHT22;23625;48.784;9.336;2023-11-19T10:21:25;14.20;99.90
37786;DHT22;23625;48.784;9.336;2023-11-19T10:23:54;14.50;99.90
37786;DHT22;23625;48.784;9.336;2023-11-19T10:26:22;14.60;99.90
37786;DHT22;23625;48.784;9.336;2023-11-19T10:28:49;14.60;99.90
37786;DHT22;23625;48.784;9.336;2023-11-19T10:31:16;14.60;99.90
37786;DHT22;23625;48.784;9.336;2023-11-19T10:33:42;14.60;99.90
37786;DHT22;23625;48.784;9.336;2023-11-19T10:36:10;14.70;99.90
37786;DHT22;23625;48.784;9.336;2023-11-19T10:38:37;14.70;99.90
37786;DHT22;23625;48.784;9.336;2023-11-19T10:41:03;14.80;99.90
37786;DHT22;23625;48.784;9.336;2023-11-19T10:43:31;14.80;99.90
37786;DHT22;23625;48.784;9.336;2023-11-19T10:46:17;14.80;99.90
37786;DHT22;23625;48.784;9.336;2023-11-19T10:48:46;14.80;99.90
37786;DHT22;23625;48.784;9.336;2023-11-19T10:51:13;14.90;99.90
37786;DHT22;23625;48.784;9.336;2023-11-19T10:53:46;14.90;99.90
37786;DHT22;23625;48.784;9.336;2023-11-19T10:56:16;15.00;99.90
37786;DHT22;23625;48.784;9.336;2023-11-19T10:58:45;15.20;99.90
37786;DHT22;23625;48.784;9.336;2023-11-19T11:01:19;15.40;99.90
37786;DHT22;23625;48.784;9.336;2023-11-19T11:03:46;15.60;99.90
37786;DHT22;23625;48.784;9.336;2023-11-19T11:06:13;15.70;99.90
37786;DHT22;23625;48.784;9.336;2023-11-19T11:08:39;15.80;99.90
37786;DHT22;23625;48.784;9.336;2023-11-19T11:11:05;15.80;99.90
37786;DHT22;23625;48.784;9.336;2023-11-19T11:13:33;15.80;99.90
37786;DHT22;23625;48.784;9.336;2023-11-19T11:15:59;15.70;99.90
37786;DHT22;23625;48.784;9.336;2023-11-19T11:18:26;15.70;99.90
37786;DHT22;23625;48.784;9.336;2023-11-19T11:21:00;15.60;99.90
37786;DHT22;23625;48.784;9.336;2023-11-19T11:29:30;15.60;99.90
37786;DHT22;23625;48.784;9.336;2023-11-19T11:32:21;15.50;99.90
37786;DHT22;23625;48.784;9.336;2023-11-19T11:35:11;15.50;99.90
37786;DHT22;23625;48.784;9.336;2023-11-19T11:37:45;15.60;99.90
37786;DHT22;23625;48.784;9.336;2023-11-19T11:40:17;16.00;99.90
37786;DHT22;23625;48.784;9.336;2023-11-19T11:42:44;16.10;99.90
37786;DHT22;23625;48.784;9.336;2023-11-19T11:45:11;16.00;99.90
37786;DHT22;23625;48.784;9.336;2023-11-19T11:50:14;15.90;99.20
37786;DHT22;23625;48.784;9.336;2023-11-19T11:55:28;15.80;97.40
37786;DHT22;23625;48.784;9.336;2023-11-19T11:57:56;15.70;99.70
37786;DHT22;23625;48.784;9.336;2023-11-19T12:00:27;15.50;99.90
37786;DHT22;23625;48.784;9.336;2023-11-19T12:03:05;15.40;99.90
37786;DHT22;23625;48.784;9.336;2023-11-19T12:05:32;15.40;99.90
37786;DHT22;23625;48.784;9.336;2023-11-19T12:08:04;15.40;99.90
37786;DHT22;23625;48.784;9.336;2023-11-19T12:10:51;15.50;99.90
37786;DHT22;23625;48.784;9.336;2023-11-19T12:13:18;15.90;99.90
37786;DHT22;23625;48.784;9.336;2023-11-19T12:16:07;16.30;99.90
37786;DHT22;23625;48.784;9.336;2023-11-19T12:18:33;16.80;99.90
37786;DHT22;23625;48.784;9.336;2023-11-19T12:20:59;17.00;92.30
37786;DHT22;23625;48.784;9.336;2023-11-19T12:23:32;17.10;92.70
37786;DHT22;23625;48.784;9.336;2023-11-19T12:25:58;17.30;92.20
37786;DHT22;23625;48.784;9.336;2023-11-19T12:28:24;17.50;91.80
37786;DHT22;23625;48.784;9.336;2023-11-19T12:30:52;17.60;90.30
37786;DHT22;23625;48.784;9.336;2023-11-19T12:33:19;17.70;88.40
37786;DHT22;23625;48.784;9.336;2023-11-19T12:35:46;17.70;92.00
37786;DHT22;23625;48.784;9.336;2023-11-19T12:38:19;17.50;86.90
37786;DHT22;23625;48.784;9.336;2023-11-19T12:41:03;17.60;84.70
37786;DHT22;23625;48.784;9.336;2023-11-19T12:43:29;17.70;83.60
37786;DHT22;23625;48.784;9.336;2023-11-19T12:45:55;17.50;85.30
37786;DHT22;23625;48.784;9.336;2023-11-19T12:48:20;17.40;84.70
37786;DHT22;23625;48.784;9.336;2023-11-19T12:50:56;17.30;84.70
37786;DHT22;23625;48.784;9.336;2023-11-19T12:53:24;17.20;83.60
37786;DHT22;23625;48.784;9.336;2023-11-19T12:55:50;17.10;87.50
37786;DHT22;23625;48.784;9.336;2023-11-19T12:58:33;17.00;86.40
37786;DHT22;23625;48.784;9.336;2023-11-19T13:01:06;16.90;86.90
37786;DHT22;23625;48.784;9.336;2023-11-19T13:03:34;16.90;90.30
37786;DHT22;23625;48.784;9.336;2023-11-19T13:08:39;17.10;82.30
37786;DHT22;23625;48.784;9.336;2023-11-19T13:11:05;17.30;80.20
37786;DHT22;23625;48.784;9.336;2023-11-19T13:13:32;17.50;78.10
37786;DHT22;23625;48.784;9.336;2023-11-19T13:16:04;17.60;77.30
37786;DHT22;23625;48.784;9.336;2023-11-19T13:18:31;17.60;74.70
37786;DHT22;23625;48.784;9.336;2023-11-19T13:20:57;17.60;73.90
37786;DHT22;23625;48.784;9.336;2023-11-19T13:23:25;17.70;74.70
37786;DHT22;23625;48.784;9.336;2023-11-19T13:25:51;17.80;75.90
37786;DHT22;23625;48.784;9.336;2023-11-19T13:28:16;18.00;75.80
37786;DHT22;23625;48.784;9.336;2023-11-19T13:30:42;17.90;71.10
37786;DHT22;23625;48.784;9.336;2023-11-19T13:33:07;17.60;71.40
37786;DHT22;23625;48.784;9.336;2023-11-19T13:35:37;17.40;69.60
37786;DHT22;23625;48.784;9.336;2023-11-19T13:38:05;17.20;71.00
37786;DHT22;23625;48.784;9.336;2023-11-19T13:40:31;17.00;72.50
37786;DHT22;23625;48.784;9.336;2023-11-19T13:42:56;16.90;71.50
37786;DHT22;23625;48.784;9.336;2023-11-19T13:45:22;16.70;72.00
37786;DHT22;23625;48.784;9.336;2023-11-19T13:47:47;16.60;72.30
37786;DHT22;23625;48.784;9.336;2023-11-19T13:50:14;16.50;74.00
37786;DHT22;23625;48.784;9.336;2023-11-19T13:52:44;16.60;73.10
37786;DHT22;23625;48.784;9.336;2023-11-19T13:55:12;16.40;73.60
37786;DHT22;23625;48.784;9.336;2023-11-19T13:57:39;16.40;73.60
37786;DHT22;23625;48.784;9.336;2023-11-19T14:00:09;16.50;73.90
37786;DHT22;23625;48.784;9.336;2023-11-19T14:02:42;16.50;75.20
37786;DHT22;23625;48.784;9.336;2023-11-19T14:05:09;16.30;77.00
37786;DHT22;23625;48.784;9.336;2023-11-19T14:07:36;16.40;76.00
37786;DHT22;23625;48.784;9.336;2023-11-19T14:10:02;16.20;76.20
37786;DHT22;23625;48.784;9.336;2023-11-19T14:12:28;16.30;77.10
37786;DHT22;23625;48.784;9.336;2023-11-19T14:14:53;16.10;76.70
37786;DHT22;23625;48.784;9.336;2023-11-19T14:17:20;16.00;79.70
37786;DHT22;23625;48.784;9.336;2023-11-19T14:19:46;16.00;79.80
37786;DHT22;23625;48.784;9.336;2023-11-19T14:22:12;15.80;81.90
37786;DHT22;23625;48.784;9.336;2023-11-19T14:24:38;15.90;81.20
37786;DHT22;23625;48.784;9.336;2023-11-19T14:27:06;15.80;82.10
37786;DHT22;23625;48.784;9.336;2023-11-19T14:29:31;15.60;81.40
37786;DHT22;23625;48.784;9.336;2023-11-19T14:31:57;15.70;80.70
37786;DHT22;23625;48.784;9.336;2023-11-19T14:34:24;15.50;78.60
37786;DHT22;23625;48.784;9.336;2023-11-19T14:36:51;15.50;77.70
37786;DHT22;23625;48.784;9.336;2023-11-19T14:39:17;15.30;78.80
37786;DHT22;23625;48.784;9.336;2023-11-19T14:41:43;15.30;78.30
37786;DHT22;23625;48.784;9.336;2023-11-19T14:44:11;15.30;77.50
37786;DHT22;23625;48.784;9.336;2023-11-19T14:46:38;15.30;78.60
37786;DHT22;23625;48.784;9.336;2023-11-19T14:49:03;15.20;78.80
37786;DHT22;23625;48.784;9.336;2023-11-19T14:51:30;15.10;80.60
37786;DHT22;23625;48.784;9.336;2023-11-19T14:53:55;15.00;82.20
37786;DHT22;23625;48.784;9.336;2023-11-19T14:56:21;14.90;83.70
37786;DHT22;23625;48.784;9.336;2023-11-19T14:58:47;14.80;86.30
37786;DHT22;23625;48.784;9.336;2023-11-19T15:01:13;14.70;89.70
37786;DHT22;23625;48.784;9.336;2023-11-19T15:03:39;14.60;91.70
37786;DHT22;23625;48.784;9.336;2023-11-19T15:06:05;14.40;93.30
37786;DHT22;23625;48.784;9.336;2023-11-19T15:08:32;14.50;93.70
37786;DHT22;23625;48.784;9.336;2023-11-19T15:10:58;14.50;94.30
37786;DHT22;23625;48.784;9.336;2023-11-19T15:13:24;14.50;94.40
37786;DHT22;23625;48.784;9.336;2023-11-19T15:15:49;14.40;95.20
37786;DHT22;23625;48.784;9.336;2023-11-19T15:18:15;14.40;95.40
37786;DHT22;23625;48.784;9.336;2023-11-19T15:20:42;14.40;96.10
37786;DHT22;23625;48.784;9.336;2023-11-19T15:23:14;14.30;96.90
37786;DHT22;23625;48.784;9.336;2023-11-19T15:25:41;14.30;95.70
37786;DHT22;23625;48.784;9.336;2023-11-19T15:28:07;14.30;95.10
37786;DHT22;23625;48.784;9.336;2023-11-19T15:30:32;14.30;94.60
37786;DHT22;23625;48.784;9.336;2023-11-19T15:32:58;14.40;90.60
37786;DHT22;23625;48.784;9.336;2023-11-19T15:35:30;14.30;92.40
37786;DHT22;23625;48.784;9.336;2023-11-19T15:38:01;14.20;94.20
37786;DHT22;23625;48.784;9.336;2023-11-19T15:40:29;14.10;95.80
37786;DHT22;23625;48.784;9.336;2023-11-19T15:42:55;14.10;94.50
37786;DHT22;23625;48.784;9.336;2023-11-19T15:45:23;14.00;94.90
37786;DHT22;23625;48.784;9.336;2023-11-19T15:47:49;13.90;96.40